createdAt,value
2023-06-25T00:01:07.861Z,35.50
2023-06-25T00:03:34.956Z,35.00
2023-06-25T00:06:01.997Z,35.00
2023-06-25T00:08:28.959Z,33.50
2023-06-25T00:10:56.057Z,34.50
2023-06-25T00:13:23.044Z,34.50
2023-06-25T00:15:50.001Z,36.00
2023-06-25T00:18:16.910Z,35.00
2023-06-25T00:20:44.248Z,35.00
2023-06-25T00:23:11.112Z,34.00
2023-06-25T00:25:38.061Z,34.00
2023-06-25T00:28:05.395Z,34.00
2023-06-25T00:30:32.340Z,35.00
2023-06-25T00:32:59.388Z,33.50
2023-06-25T00:35:43.623Z,34.00
2023-06-25T00:38:11.251Z,35.50
2023-06-25T00:40:38.329Z,35.00
2023-06-25T00:43:05.618Z,35.00
2023-06-25T00:45:32.555Z,34.50
2023-06-25T00:47:59.719Z,36.00
2023-06-25T00:50:27.012Z,34.50
2023-06-25T00:52:54.068Z,35.00
2023-06-25T00:55:21.663Z,35.00
2023-06-25T00:57:48.973Z,35.75
2023-06-25T01:00:16.616Z,34.50
2023-06-25T01:02:47.271Z,35.25
2023-06-25T01:05:31.381Z,34.50
2023-06-25T01:08:00.697Z,35.00
2023-06-25T01:10:29.007Z,35.00
2023-06-25T01:12:55.902Z,32.00
2023-06-25T01:15:22.774Z,34.50
2023-06-25T01:17:49.738Z,35.00
2023-06-25T01:20:16.768Z,36.00
2023-06-25T01:22:43.862Z,36.00
2023-06-25T01:25:11.316Z,35.00
2023-06-25T01:27:38.558Z,35.00
2023-06-25T01:30:06.544Z,34.50
2023-06-25T01:32:33.465Z,33.50
2023-06-25T01:35:00.470Z,35.50
2023-06-25T01:37:27.361Z,34.00
2023-06-25T01:39:55.939Z,35.00
2023-06-25T01:42:22.983Z,34.50
2023-06-25T01:44:49.867Z,35.75
2023-06-25T01:47:16.957Z,36.50
2023-06-25T01:49:43.844Z,35.50
2023-06-25T01:52:10.900Z,34.00
2023-06-25T01:54:38.806Z,36.00
2023-06-25T01:57:06.210Z,35.50
2023-06-25T01:59:33.226Z,35.00
2023-06-25T02:02:00.199Z,34.50
2023-06-25T02:04:27.078Z,35.00
2023-06-25T02:06:54.131Z,34.00
2023-06-25T02:09:22.288Z,35.00
2023-06-25T02:11:50.115Z,35.00
2023-06-25T02:14:17.270Z,35.00
2023-06-25T02:16:44.445Z,34.00
2023-06-25T02:19:11.917Z,35.50
2023-06-25T02:21:38.916Z,37.00
2023-06-25T02:24:06.802Z,38.00
2023-06-25T02:26:33.769Z,34.50
2023-06-25T02:29:00.769Z,36.00
2023-06-25T02:31:27.938Z,34.50
2023-06-25T02:33:54.886Z,34.00
2023-06-25T02:36:21.844Z,35.00
2023-06-25T02:38:48.731Z,33.50
2023-06-25T02:41:15.731Z,34.50
2023-06-25T02:43:42.863Z,35.00
2023-06-25T02:46:09.820Z,35.00
2023-06-25T02:48:38.243Z,35.00
2023-06-25T02:51:06.792Z,36.00
2023-06-25T02:53:33.720Z,34.00
2023-06-25T02:56:00.710Z,33.50
2023-06-25T02:58:27.583Z,34.50
2023-06-25T03:00:54.524Z,35.50
2023-06-25T03:03:21.716Z,35.50
2023-06-25T03:05:49.069Z,35.00
2023-06-25T03:08:16.034Z,34.50
2023-06-25T03:10:43.180Z,34.50
2023-06-25T03:13:10.128Z,35.25
2023-06-25T03:15:37.357Z,34.50
2023-06-25T03:18:05.451Z,36.00
2023-06-25T03:20:32.364Z,36.00
2023-06-25T03:22:59.453Z,34.50
2023-06-25T03:25:26.441Z,34.00
2023-06-25T03:28:06.462Z,34.50
2023-06-25T03:30:33.490Z,34.50
2023-06-25T03:33:00.517Z,36.00
2023-06-25T03:35:30.462Z,37.00
2023-06-25T03:37:58.307Z,36.50
2023-06-25T03:40:25.221Z,36.00
2023-06-25T03:42:52.181Z,35.00
2023-06-25T03:45:19.303Z,35.50
2023-06-25T03:47:46.433Z,36.50
2023-06-25T03:50:14.769Z,36.00
2023-06-25T03:52:41.716Z,35.50
2023-06-25T03:55:09.263Z,37.00
2023-06-25T03:57:36.538Z,37.00
2023-06-25T04:00:03.754Z,36.00
2023-06-25T04:02:40.209Z,36.00
2023-06-25T04:05:08.007Z,34.00
2023-06-25T04:07:34.949Z,34.50
2023-06-25T04:10:02.134Z,34.50
2023-06-25T04:12:29.884Z,36.50
2023-06-25T04:14:58.479Z,38.00
2023-06-25T04:17:25.840Z,37.00
2023-06-25T04:19:54.563Z,38.00
2023-06-25T04:22:21.419Z,36.00
2023-06-25T04:24:48.520Z,35.00
2023-06-25T04:27:15.924Z,35.50
2023-06-25T04:29:42.936Z,36.00
2023-06-25T04:32:10.327Z,36.50
2023-06-25T04:34:39.767Z,38.00
2023-06-25T04:37:07.586Z,36.50
2023-06-25T04:39:34.911Z,37.00
2023-06-25T04:42:03.685Z,36.00
2023-06-25T04:44:30.550Z,36.00
2023-06-25T04:46:57.472Z,35.50
2023-06-25T04:49:24.528Z,37.00
2023-06-25T04:51:51.600Z,36.50
2023-06-25T04:54:18.647Z,35.00
2023-06-25T04:56:45.603Z,35.00
2023-06-25T04:59:12.500Z,36.00
2023-06-25T05:01:39.983Z,34.00
2023-06-25T05:04:06.950Z,35.00
2023-06-25T05:06:33.899Z,35.50
2023-06-25T05:09:01.461Z,35.50
2023-06-25T05:11:28.411Z,36.00
2023-06-25T05:13:55.258Z,35.00
2023-06-25T05:16:22.108Z,35.00
2023-06-25T05:18:50.616Z,34.50
2023-06-25T05:21:19.619Z,35.00
2023-06-25T05:23:58.952Z,35.50
2023-06-25T05:26:26.548Z,37.25
2023-06-25T05:28:53.421Z,35.50
2023-06-25T05:31:20.648Z,37.00
2023-06-25T05:33:47.529Z,35.00
2023-06-25T05:36:15.112Z,37.00
2023-06-25T05:38:42.039Z,36.50
2023-06-25T05:41:09.361Z,37.50
2023-06-25T05:43:36.258Z,35.50
2023-06-25T05:46:03.280Z,38.00
2023-06-25T05:48:30.217Z,38.25
2023-06-25T05:50:57.352Z,39.00
2023-06-25T05:53:25.633Z,38.00
2023-06-25T05:55:52.763Z,38.00
2023-06-25T05:58:19.644Z,38.00
2023-06-25T06:00:46.645Z,37.00
2023-06-25T06:03:13.760Z,35.50
2023-06-25T06:05:40.789Z,38.00
2023-06-25T06:08:17.960Z,38.50
2023-06-25T06:10:44.990Z,38.50
2023-06-25T06:13:11.938Z,37.50
2023-06-25T06:15:39.066Z,38.00
2023-06-25T06:18:06.228Z,37.50
2023-06-25T06:20:33.418Z,37.50
2023-06-25T06:23:00.492Z,38.00
2023-06-25T06:25:27.519Z,38.00
2023-06-25T06:27:54.914Z,37.50
2023-06-25T06:30:24.763Z,39.50
2023-06-25T06:32:51.738Z,38.75
2023-06-25T06:35:18.801Z,37.00
2023-06-25T06:37:45.838Z,36.50
2023-06-25T06:40:12.874Z,39.50
2023-06-25T06:42:39.783Z,38.00
2023-06-25T06:45:07.011Z,37.00
2023-06-25T06:47:40.102Z,39.00
2023-06-25T06:50:08.106Z,38.50
2023-06-25T06:52:35.036Z,38.00
2023-06-25T06:55:02.088Z,38.00
2023-06-25T06:57:29.109Z,38.50
2023-06-25T06:59:56.346Z,40.00
2023-06-25T07:02:23.335Z,40.00
2023-06-25T07:04:50.494Z,41.00
2023-06-25T07:07:17.405Z,39.50
2023-06-25T07:09:54.320Z,39.00
2023-06-25T07:12:21.966Z,38.50
2023-06-25T07:14:49.225Z,38.50
2023-06-25T07:17:16.246Z,37.50
2023-06-25T07:19:43.252Z,37.00
2023-06-25T07:22:10.189Z,39.50
2023-06-25T07:24:37.072Z,40.00
2023-06-25T07:27:04.263Z,39.75
2023-06-25T07:29:31.195Z,40.00
2023-06-25T07:31:58.632Z,39.00
2023-06-25T07:34:25.623Z,38.50
2023-06-25T07:36:53.019Z,40.00
2023-06-25T07:39:28.058Z,39.75
2023-06-25T07:41:55.036Z,39.50
2023-06-25T07:44:38.692Z,39.75
2023-06-25T07:47:09.754Z,40.00
2023-06-25T07:49:36.629Z,39.00
2023-06-25T07:52:06.613Z,39.50
2023-06-25T07:54:33.652Z,40.25
2023-06-25T07:57:00.705Z,39.75
2023-06-25T07:59:39.065Z,39.50
2023-06-25T08:02:14.706Z,38.00
2023-06-25T08:04:41.661Z,39.50
2023-06-25T08:07:08.625Z,40.00
2023-06-25T08:09:35.562Z,39.50
2023-06-25T08:12:02.549Z,40.50
2023-06-25T08:14:30.247Z,40.00
2023-06-25T08:16:57.305Z,40.00
2023-06-25T08:19:24.239Z,40.00
2023-06-25T08:21:53.402Z,39.50
2023-06-25T08:24:20.386Z,41.00
2023-06-25T08:26:47.427Z,41.75
2023-06-25T08:29:32.797Z,43.00
2023-06-25T08:31:59.882Z,40.50
2023-06-25T08:34:45.637Z,40.50
2023-06-25T08:37:12.696Z,40.00
2023-06-25T08:39:58.499Z,40.25
2023-06-25T08:42:25.599Z,39.75
2023-06-25T08:44:52.620Z,41.75
2023-06-25T08:47:20.794Z,41.00
2023-06-25T08:49:51.094Z,41.00
2023-06-25T08:52:21.633Z,40.50
2023-06-25T08:54:50.438Z,40.00
2023-06-25T08:57:18.865Z,39.50
2023-06-25T08:59:51.026Z,40.50
2023-06-25T09:02:18.055Z,40.50
2023-06-25T09:04:45.322Z,41.00
2023-06-25T09:07:14.960Z,41.00
2023-06-25T09:09:43.231Z,42.00
2023-06-25T09:12:13.043Z,41.00
2023-06-25T09:14:40.087Z,40.75
2023-06-25T09:17:06.983Z,41.50
2023-06-25T09:19:33.924Z,42.50
2023-06-25T09:22:00.812Z,44.00
2023-06-25T09:24:27.804Z,42.50
2023-06-25T09:26:55.555Z,42.75
2023-06-25T09:29:23.724Z,41.50
2023-06-25T09:31:50.787Z,42.00
2023-06-25T09:34:20.088Z,42.25
2023-06-25T09:36:47.041Z,42.00
2023-06-25T09:39:14.318Z,41.75
2023-06-25T09:41:42.266Z,42.00
2023-06-25T09:44:09.514Z,42.00
2023-06-25T09:46:38.538Z,42.25
2023-06-25T09:49:06.262Z,43.00
2023-06-25T09:52:11.976Z,42.00
2023-06-25T09:54:40.530Z,40.00
2023-06-25T09:57:13.863Z,41.00
2023-06-25T09:59:40.858Z,42.25
2023-06-25T10:02:08.933Z,41.75
2023-06-25T10:04:37.791Z,42.00
2023-06-25T10:07:23.691Z,42.25
2023-06-25T10:09:55.092Z,41.50
2023-06-25T10:12:22.181Z,41.50
2023-06-25T10:14:49.571Z,43.00
2023-06-25T10:17:16.941Z,43.00
2023-06-25T10:19:56.219Z,41.00
2023-06-25T10:22:29.221Z,40.50
2023-06-25T10:24:56.549Z,40.50
2023-06-25T10:27:23.507Z,41.00
2023-06-25T10:30:14.372Z,41.50
2023-06-25T10:32:41.465Z,42.50
2023-06-25T10:35:09.132Z,41.50
2023-06-25T10:37:36.718Z,41.50
2023-06-25T10:40:06.648Z,41.25
2023-06-25T10:42:34.106Z,44.00
2023-06-25T10:45:01.784Z,42.25
2023-06-25T10:47:28.829Z,41.50
2023-06-25T10:49:56.079Z,41.50
2023-06-25T10:52:23.243Z,43.00
2023-06-25T10:54:50.202Z,42.50
2023-06-25T10:57:17.581Z,43.00
2023-06-25T10:59:44.544Z,41.50
2023-06-25T11:02:13.082Z,41.00
2023-06-25T11:04:40.021Z,42.00
2023-06-25T11:07:07.116Z,42.50
2023-06-25T11:09:34.163Z,41.50
2023-06-25T11:12:01.511Z,41.50
2023-06-25T11:14:28.534Z,41.50
2023-06-25T11:16:55.511Z,40.50
2023-06-25T11:19:24.995Z,41.00
2023-06-25T11:22:10.514Z,41.50
2023-06-25T11:24:38.320Z,43.25
2023-06-25T11:27:06.378Z,43.00
2023-06-25T11:29:40.622Z,42.00
2023-06-25T11:32:09.800Z,42.00
2023-06-25T11:34:37.497Z,44.00
2023-06-25T11:37:15.911Z,43.75
2023-06-25T11:39:47.647Z,40.50
2023-06-25T11:42:19.930Z,43.50
2023-06-25T11:45:07.348Z,43.00
2023-06-25T11:47:54.412Z,44.00
2023-06-25T11:50:25.345Z,42.50
2023-06-25T11:52:54.220Z,43.00
2023-06-25T11:55:21.772Z,43.50
2023-06-25T11:57:49.819Z,41.50
2023-06-25T12:00:17.442Z,42.00
2023-06-25T12:03:02.980Z,43.75
2023-06-25T12:05:30.004Z,44.00
2023-06-25T12:07:56.976Z,45.00
2023-06-25T12:10:23.980Z,42.25
2023-06-25T12:12:51.143Z,41.00
2023-06-25T12:15:55.034Z,41.25
2023-06-25T12:18:22.041Z,43.00
2023-06-25T12:20:49.483Z,44.00
2023-06-25T12:23:16.518Z,43.00
2023-06-25T12:25:43.475Z,42.50
2023-06-25T12:28:10.454Z,43.50
2023-06-25T12:30:37.395Z,43.00
2023-06-25T12:33:04.477Z,44.00
2023-06-25T12:35:31.408Z,44.00
2023-06-25T12:37:58.433Z,43.50
2023-06-25T12:40:43.813Z,42.50
2023-06-25T12:43:29.196Z,43.00
2023-06-25T12:45:56.166Z,44.00
2023-06-25T12:48:23.123Z,44.00
2023-06-25T12:50:50.217Z,43.00
2023-06-25T12:53:17.094Z,43.00
2023-06-25T12:55:44.057Z,43.50
2023-06-25T12:58:11.030Z,42.50
2023-06-25T13:00:50.305Z,42.00
2023-06-25T13:03:21.079Z,42.00
2023-06-25T13:05:48.070Z,43.00
2023-06-25T13:08:15.170Z,44.00
2023-06-25T13:10:42.559Z,42.50
2023-06-25T13:13:09.800Z,41.75
2023-06-25T13:15:36.941Z,42.50
2023-06-25T13:18:04.404Z,43.25
2023-06-25T13:20:31.314Z,42.50
2023-06-25T13:22:58.336Z,42.00
2023-06-25T13:25:25.276Z,42.50
2023-06-25T13:27:52.258Z,44.00
2023-06-25T13:30:19.230Z,43.00
2023-06-25T13:33:22.985Z,43.50
2023-06-25T13:36:08.618Z,44.25
2023-06-25T13:38:35.612Z,43.50
2023-06-25T13:41:02.516Z,44.00
2023-06-25T13:43:29.506Z,43.00
2023-06-25T13:46:15.947Z,44.00
2023-06-25T13:49:01.906Z,42.50
2023-06-25T13:51:28.903Z,43.00
2023-06-25T13:53:55.877Z,43.00
2023-06-25T13:56:22.946Z,42.00
2023-06-25T13:58:49.982Z,42.00
2023-06-25T14:01:16.936Z,43.00
2023-06-25T14:03:43.906Z,43.00
2023-06-25T14:06:29.180Z,41.50
2023-06-25T14:08:56.612Z,43.00
2023-06-25T14:11:23.483Z,44.00
2023-06-25T14:13:50.531Z,44.00
2023-06-25T14:16:36.162Z,43.75
2023-06-25T14:19:22.260Z,44.00
2023-06-25T14:21:49.254Z,44.50
2023-06-25T14:24:16.147Z,43.00
2023-06-25T14:26:43.260Z,43.75
2023-06-25T14:29:12.258Z,43.25
2023-06-25T14:31:39.582Z,43.50
2023-06-25T14:34:06.497Z,44.00
2023-06-25T14:36:33.593Z,42.00
2023-06-25T14:39:00.708Z,42.00
2023-06-25T14:41:46.234Z,42.25
2023-06-25T14:44:31.707Z,43.00
2023-06-25T14:46:58.788Z,43.75
2023-06-25T14:49:44.275Z,43.50
2023-06-25T14:52:11.251Z,43.50
2023-06-25T14:54:38.174Z,43.50
2023-06-25T14:57:05.156Z,44.00
2023-06-25T14:59:32.098Z,45.00
2023-06-25T15:01:59.268Z,43.50
2023-06-25T15:04:26.465Z,44.00
2023-06-25T15:06:53.702Z,42.50
2023-06-25T15:09:20.996Z,43.50
2023-06-25T15:11:48.043Z,42.00
2023-06-25T15:14:15.112Z,42.00
2023-06-25T15:16:42.107Z,40.50
2023-06-25T15:19:09.106Z,42.50
2023-06-25T15:21:36.127Z,43.00
2023-06-25T15:24:02.988Z,40.75
2023-06-25T15:26:29.912Z,44.00
2023-06-25T15:28:56.871Z,42.50
2023-06-25T15:31:42.373Z,43.50
2023-06-25T15:34:09.410Z,44.25
2023-06-25T15:36:36.320Z,42.50
2023-06-25T15:39:23.518Z,43.00
2023-06-25T15:41:50.501Z,42.00
2023-06-25T15:44:17.380Z,41.00
2023-06-25T15:46:44.403Z,41.50
2023-06-25T15:49:11.474Z,43.50
2023-06-25T15:51:38.394Z,43.00
2023-06-25T15:54:20.843Z,42.50
2023-06-25T15:56:52.370Z,43.00
2023-06-25T15:59:19.297Z,44.00
2023-06-25T16:01:46.310Z,42.00
2023-06-25T16:04:13.265Z,42.00
2023-06-25T16:06:58.878Z,43.00
2023-06-25T16:09:25.860Z,42.50
2023-06-25T16:11:52.723Z,42.75
2023-06-25T16:14:19.792Z,41.00
2023-06-25T16:17:05.075Z,43.00
2023-06-25T16:19:59.825Z,43.00
2023-06-25T16:22:19.197Z,41.50
2023-06-25T16:24:46.129Z,42.25
2023-06-25T16:27:15.131Z,43.00
2023-06-25T16:29:42.078Z,45.00
2023-06-25T16:32:27.679Z,44.75
2023-06-25T16:34:54.670Z,45.50
2023-06-25T16:37:21.591Z,44.50
2023-06-25T16:39:48.592Z,46.00
2023-06-25T16:42:15.609Z,44.50
2023-06-25T16:44:42.721Z,44.50
2023-06-25T16:47:09.920Z,46.00
2023-06-25T16:49:37.324Z,46.50
2023-06-25T16:52:04.554Z,46.50
2023-06-25T16:54:31.605Z,46.00
2023-06-25T16:56:58.441Z,45.50
2023-06-25T16:59:44.188Z,45.00
2023-06-25T17:02:12.445Z,46.00
2023-06-25T17:04:39.650Z,45.50
2023-06-25T17:07:08.003Z,44.50
2023-06-25T17:09:35.479Z,43.50
2023-06-25T17:12:02.562Z,44.75
2023-06-25T17:14:29.527Z,42.00
2023-06-25T17:16:56.874Z,43.00
2023-06-25T17:19:42.701Z,44.00
2023-06-25T17:22:09.747Z,44.00
2023-06-25T17:24:36.681Z,43.00
2023-06-25T17:27:03.874Z,43.00
2023-06-25T17:29:30.805Z,43.00
2023-06-25T17:31:57.907Z,43.00
2023-06-25T17:34:24.973Z,43.50
2023-06-25T17:36:51.887Z,43.00
2023-06-25T17:39:18.822Z,42.50
2023-06-25T17:41:45.837Z,42.50
2023-06-25T17:44:12.783Z,46.50
2023-06-25T17:46:39.731Z,46.50
2023-06-25T17:49:06.776Z,45.75
2023-06-25T17:51:33.967Z,46.25
2023-06-25T17:54:00.875Z,46.00
2023-06-25T17:56:28.414Z,44.25
2023-06-25T17:58:55.313Z,44.00
2023-06-25T18:01:22.368Z,47.00
2023-06-25T18:03:49.455Z,46.50
2023-06-25T18:06:16.560Z,46.00
2023-06-25T18:08:43.480Z,45.00
2023-06-25T18:11:24.310Z,44.50
2023-06-25T18:13:52.136Z,45.00
2023-06-25T18:16:19.396Z,49.25
2023-06-25T18:18:48.327Z,46.50
2023-06-25T18:21:33.705Z,47.50
2023-06-25T18:24:00.731Z,47.00
2023-06-25T18:26:27.640Z,47.00
2023-06-25T18:28:54.578Z,46.50
2023-06-25T18:31:21.582Z,46.25
2023-06-25T18:33:48.570Z,45.50
2023-06-25T18:36:15.439Z,46.50
2023-06-25T18:38:42.381Z,44.50
2023-06-25T18:41:09.243Z,45.00
2023-06-25T18:43:54.626Z,43.50
2023-06-25T18:46:21.635Z,47.25
2023-06-25T18:48:49.016Z,46.50
2023-06-25T18:51:16.062Z,50.75
2023-06-25T18:53:43.033Z,47.00
2023-06-25T18:56:09.962Z,44.00
2023-06-25T18:58:55.621Z,42.00
2023-06-25T19:01:22.685Z,43.00
2023-06-25T19:03:49.838Z,42.50
2023-06-25T19:06:16.970Z,42.50
2023-06-25T19:09:02.718Z,43.50
2023-06-25T19:11:29.782Z,46.50
2023-06-25T19:13:56.729Z,45.50
2023-06-25T19:16:23.742Z,44.00
2023-06-25T19:18:50.655Z,49.25
2023-06-25T19:21:54.617Z,47.00
2023-06-25T19:24:40.505Z,45.00
2023-06-25T19:27:08.634Z,44.50
2023-06-25T19:29:35.597Z,44.00
2023-06-25T19:32:02.679Z,42.00
2023-06-25T19:34:29.644Z,43.50
2023-06-25T19:37:15.528Z,45.00
2023-06-25T19:39:42.904Z,45.50
2023-06-25T19:42:09.966Z,41.00
2023-06-25T19:44:56.252Z,43.25
2023-06-25T19:47:23.659Z,43.00
2023-06-25T19:49:50.809Z,43.00
2023-06-25T19:52:17.804Z,41.50
2023-06-25T19:54:44.742Z,45.75
2023-06-25T19:57:11.824Z,62.00
2023-06-25T19:59:38.782Z,54.50
2023-06-25T20:02:06.066Z,48.00
2023-06-25T20:04:33.060Z,44.00
2023-06-25T20:07:00.138Z,42.50
2023-06-25T20:09:27.166Z,42.75
2023-06-25T20:11:54.166Z,46.50
2023-06-25T20:14:22.015Z,44.50
2023-06-25T20:16:49.005Z,43.50
2023-06-25T20:19:16.724Z,46.00
2023-06-25T20:21:43.784Z,44.00
2023-06-25T20:24:29.063Z,43.75
2023-06-25T20:26:56.042Z,41.50
2023-06-25T20:29:22.921Z,48.50
2023-06-25T20:31:50.095Z,46.50
2023-06-25T20:34:17.034Z,51.00
2023-06-25T20:36:44.076Z,46.50
2023-06-25T20:39:10.999Z,47.50
2023-06-25T20:41:37.944Z,42.50
2023-06-25T20:44:04.955Z,43.00
2023-06-25T20:46:32.131Z,43.00
2023-06-25T20:49:00.359Z,43.50
2023-06-25T20:51:27.478Z,45.00
2023-06-25T20:53:54.422Z,46.00
2023-06-25T20:56:21.510Z,44.75
2023-06-25T20:58:48.372Z,45.00
2023-06-25T21:01:15.442Z,50.25
2023-06-25T21:03:42.372Z,49.00
2023-06-25T21:06:09.506Z,45.50
2023-06-25T21:08:36.476Z,42.50
2023-06-25T21:11:03.446Z,45.75
2023-06-25T21:13:30.356Z,47.50
2023-06-25T21:15:57.338Z,47.00
2023-06-25T21:18:24.467Z,45.00
2023-06-25T21:20:51.391Z,43.50
2023-06-25T21:23:18.409Z,43.50
2023-06-25T21:25:45.503Z,43.00
2023-06-25T21:28:12.422Z,43.50
2023-06-25T21:30:39.744Z,43.00
2023-06-25T21:33:06.933Z,42.50
2023-06-25T21:35:34.008Z,42.00
2023-06-25T21:38:00.917Z,41.50
2023-06-25T21:40:27.921Z,42.50
2023-06-25T21:42:54.852Z,45.00
2023-06-25T21:45:21.877Z,42.50
2023-06-25T21:47:48.808Z,42.50
2023-06-25T21:50:16.157Z,41.00
2023-06-25T21:52:43.045Z,42.50
2023-06-25T21:55:10.092Z,40.00
2023-06-25T21:57:37.020Z,40.50
2023-06-25T22:00:04.895Z,41.00
2023-06-25T22:02:42.736Z,42.00
2023-06-25T22:05:10.023Z,43.00
2023-06-25T22:07:36.888Z,41.25
2023-06-25T22:10:04.141Z,42.00
2023-06-25T22:12:31.070Z,40.00
2023-06-25T22:14:58.072Z,42.00
2023-06-25T22:17:25.167Z,40.50
2023-06-25T22:19:53.368Z,41.00
2023-06-25T22:22:20.824Z,41.00
2023-06-25T22:24:49.052Z,38.50
2023-06-25T22:27:16.408Z,40.00
2023-06-25T22:29:43.541Z,40.50
2023-06-25T22:32:10.879Z,39.00
2023-06-25T22:34:38.138Z,40.50
2023-06-25T22:37:05.578Z,41.50
2023-06-25T22:39:32.565Z,39.50
2023-06-25T22:42:01.205Z,40.00
2023-06-25T22:44:28.192Z,45.50
2023-06-25T22:46:55.057Z,44.00
2023-06-25T22:49:22.199Z,41.50
2023-06-25T22:51:49.115Z,43.00
2023-06-25T22:54:16.930Z,40.50
2023-06-25T22:56:44.112Z,41.25
2023-06-25T22:59:11.289Z,42.50
2023-06-25T23:01:38.875Z,40.50
2023-06-25T23:04:06.076Z,40.50
2023-06-25T23:06:33.143Z,41.50
2023-06-25T23:09:01.798Z,41.00
2023-06-25T23:11:28.735Z,40.00
2023-06-25T23:13:55.909Z,43.00
2023-06-25T23:16:22.976Z,40.50
2023-06-25T23:18:50.613Z,39.50
2023-06-25T23:21:17.556Z,40.25
2023-06-25T23:23:44.739Z,40.50
2023-06-25T23:26:12.842Z,41.50
2023-06-25T23:28:40.034Z,41.00
2023-06-25T23:31:09.221Z,40.00
2023-06-25T23:33:36.365Z,40.50
2023-06-25T23:36:03.646Z,38.50
2023-06-25T23:38:30.697Z,40.00
2023-06-25T23:40:57.612Z,41.50
2023-06-25T23:43:25.236Z,42.00
2023-06-25T23:45:52.394Z,39.00
2023-06-25T23:48:19.541Z,39.00
2023-06-25T23:50:46.460Z,40.75
2023-06-25T23:53:13.426Z,41.00
2023-06-25T23:55:40.322Z,40.25
2023-06-25T23:58:07.316Z,40.00
